createdAt,value
2022-09-09T00:00:41.454Z,13.90
2022-09-09T00:03:18.285Z,13.90
2022-09-09T00:05:57.190Z,13.90
2022-09-09T00:08:26.105Z,13.90
2022-09-09T00:10:55.219Z,13.90
2022-09-09T00:13:30.845Z,13.90
2022-09-09T00:16:10.060Z,13.90
2022-09-09T00:18:36.805Z,13.90
2022-09-09T00:21:12.533Z,13.90
2022-09-09T00:23:40.219Z,13.90
2022-09-09T00:26:25.646Z,13.80
2022-09-09T00:29:18.581Z,13.80
2022-09-09T00:31:45.127Z,13.80
2022-09-09T00:34:16.384Z,13.70
2022-09-09T00:36:44.591Z,13.80
2022-09-09T00:39:14.833Z,13.70
2022-09-09T00:41:52.053Z,13.70
2022-09-09T00:44:37.493Z,13.70
2022-09-09T00:47:13.842Z,13.80
2022-09-09T00:50:01.380Z,13.80
2022-09-09T00:52:34.252Z,13.80
2022-09-09T00:55:19.865Z,13.80
2022-09-09T00:57:47.127Z,13.80
2022-09-09T01:00:26.625Z,13.80
2022-09-09T01:03:11.657Z,13.70
2022-09-09T01:05:51.793Z,13.60
2022-09-09T01:08:34.234Z,13.60
2022-09-09T01:11:01.002Z,13.50
2022-09-09T01:13:31.414Z,13.50
2022-09-09T01:16:01.859Z,13.50
2022-09-09T01:18:35.548Z,13.50
2022-09-09T01:21:14.481Z,13.40
2022-09-09T01:23:47.297Z,13.50
2022-09-09T01:26:19.665Z,13.50
2022-09-09T01:28:49.879Z,13.60
2022-09-09T01:31:18.442Z,13.60
2022-09-09T01:33:45.031Z,13.70
2022-09-09T01:36:11.606Z,13.70
2022-09-09T01:38:38.149Z,13.70
2022-09-09T01:41:04.795Z,13.70
2022-09-09T01:43:31.353Z,13.70
2022-09-09T01:45:59.860Z,13.70
2022-09-09T01:48:26.464Z,13.70
2022-09-09T01:50:53.035Z,13.70
2022-09-09T01:53:19.865Z,13.70
2022-09-09T01:55:50.021Z,13.70
2022-09-09T01:58:26.641Z,13.70
2022-09-09T02:01:05.368Z,13.60
2022-09-09T02:03:32.628Z,13.60
2022-09-09T02:06:01.835Z,13.60
2022-09-09T02:08:30.383Z,13.60
2022-09-09T02:11:16.231Z,13.60
2022-09-09T02:13:44.219Z,13.70
2022-09-09T02:16:16.986Z,13.70
2022-09-09T02:18:45.729Z,13.70
2022-09-09T02:21:12.729Z,13.70
2022-09-09T02:23:40.648Z,13.70
2022-09-09T02:26:08.719Z,13.70
2022-09-09T02:28:35.415Z,13.60
2022-09-09T02:31:03.016Z,13.60
2022-09-09T02:33:31.350Z,13.60
2022-09-09T02:36:02.720Z,13.50
2022-09-09T02:38:29.693Z,13.50
2022-09-09T02:40:56.240Z,13.50
2022-09-09T02:43:23.327Z,13.60
2022-09-09T02:45:55.666Z,13.60
2022-09-09T02:48:23.874Z,13.60
2022-09-09T02:50:54.824Z,13.70
2022-09-09T02:53:25.793Z,13.70
2022-09-09T02:55:52.333Z,13.70
2022-09-09T02:58:18.989Z,13.80
2022-09-09T03:00:49.197Z,13.80
2022-09-09T03:03:17.147Z,13.90
2022-09-09T03:05:44.255Z,13.90
2022-09-09T03:08:10.977Z,14.00
2022-09-09T03:10:38.023Z,14.10
2022-09-09T03:13:06.262Z,14.20
2022-09-09T03:15:36.148Z,14.20
2022-09-09T03:18:02.779Z,14.30
2022-09-09T03:20:29.493Z,14.20
2022-09-09T03:22:56.078Z,14.30
2022-09-09T03:25:24.701Z,14.30
2022-09-09T03:27:54.009Z,14.20
2022-09-09T03:30:21.493Z,14.20
2022-09-09T03:32:49.119Z,14.20
2022-09-09T03:35:16.761Z,14.20
2022-09-09T03:37:43.531Z,14.20
2022-09-09T03:40:13.319Z,14.10
2022-09-09T03:42:39.901Z,14.10
2022-09-09T03:45:06.971Z,14.10
2022-09-09T03:47:34.037Z,14.10
2022-09-09T03:50:00.587Z,14.10
2022-09-09T03:52:27.402Z,14.20
2022-09-09T03:54:54.247Z,14.30
2022-09-09T03:57:20.997Z,14.30
2022-09-09T03:59:47.528Z,14.40
2022-09-09T04:02:14.167Z,14.40
2022-09-09T04:04:40.753Z,14.50
2022-09-09T04:07:07.887Z,14.60
2022-09-09T04:09:34.532Z,14.60
2022-09-09T04:12:01.088Z,14.60
2022-09-09T04:14:29.666Z,14.50
2022-09-09T04:16:58.380Z,14.50
2022-09-09T04:19:24.956Z,14.40
2022-09-09T04:21:52.588Z,14.30
2022-09-09T04:24:19.749Z,14.30
2022-09-09T04:26:46.647Z,14.30
2022-09-09T04:29:13.211Z,14.30
2022-09-09T04:31:42.891Z,14.30
2022-09-09T04:34:10.037Z,14.30
2022-09-09T04:36:36.633Z,14.20
2022-09-09T04:39:03.450Z,14.30
2022-09-09T04:41:30.856Z,14.20
2022-09-09T04:43:57.395Z,14.20
2022-09-09T04:46:24.521Z,14.20
2022-09-09T04:48:51.077Z,14.20
2022-09-09T04:51:17.619Z,14.20
2022-09-09T04:53:44.493Z,14.10
2022-09-09T04:56:17.014Z,14.10
2022-09-09T04:58:46.734Z,14.20
2022-09-09T05:01:18.477Z,14.20
2022-09-09T05:03:48.628Z,14.20
2022-09-09T05:06:16.463Z,14.20
2022-09-09T05:08:43.339Z,14.20
2022-09-09T05:11:24.357Z,14.30
2022-09-09T05:13:51.236Z,14.40
2022-09-09T05:16:17.939Z,14.50
2022-09-09T05:18:44.565Z,14.60
2022-09-09T05:21:11.686Z,14.70
2022-09-09T05:23:38.476Z,14.80
2022-09-09T05:26:05.107Z,15.00
2022-09-09T05:28:31.692Z,15.10
2022-09-09T05:30:59.021Z,15.30
2022-09-09T05:33:26.680Z,15.40
2022-09-09T05:35:57.378Z,15.50
2022-09-09T05:38:28.708Z,15.70
2022-09-09T05:40:55.564Z,15.70
2022-09-09T05:43:22.143Z,16.00
2022-09-09T05:45:48.709Z,16.30
2022-09-09T05:48:18.244Z,16.60
2022-09-09T05:50:46.137Z,16.60
2022-09-09T05:53:12.694Z,16.60
2022-09-09T05:55:39.238Z,16.40
2022-09-09T05:58:05.805Z,16.40
2022-09-09T06:00:32.965Z,16.40
2022-09-09T06:02:59.735Z,16.50
2022-09-09T06:05:28.241Z,16.80
2022-09-09T06:07:55.015Z,17.20
2022-09-09T06:10:21.611Z,18.00
2022-09-09T06:12:48.151Z,19.20
2022-09-09T06:15:14.692Z,20.70
2022-09-09T06:17:42.659Z,21.20
2022-09-09T06:20:10.281Z,21.10
2022-09-09T06:22:36.925Z,21.30
2022-09-09T06:25:03.521Z,21.90
2022-09-09T06:27:30.064Z,22.70
2022-09-09T06:29:56.618Z,22.90
2022-09-09T06:32:23.171Z,22.60
2022-09-09T06:34:50.204Z,21.70
2022-09-09T06:37:16.753Z,20.90
2022-09-09T06:39:43.335Z,20.40
2022-09-09T06:42:10.476Z,20.30
2022-09-09T06:44:37.423Z,20.00
2022-09-09T06:47:04.402Z,20.10
2022-09-09T06:49:31.016Z,20.40
2022-09-09T06:51:57.558Z,21.20
2022-09-09T06:54:24.742Z,22.40
2022-09-09T06:56:51.436Z,23.00
2022-09-09T06:59:17.989Z,24.10
2022-09-09T07:01:44.923Z,24.00
2022-09-09T07:04:12.003Z,22.90
2022-09-09T07:06:39.577Z,21.90
2022-09-09T07:09:06.779Z,21.30
2022-09-09T07:11:34.701Z,21.60
2022-09-09T07:14:01.291Z,22.40
2022-09-09T07:16:28.576Z,22.90
2022-09-09T07:18:58.668Z,22.90
2022-09-09T07:21:29.009Z,23.40
2022-09-09T07:23:55.623Z,23.40
2022-09-09T07:26:22.890Z,23.20
2022-09-09T07:28:49.528Z,23.80
2022-09-09T07:31:18.823Z,24.50
2022-09-09T07:33:45.572Z,24.50
2022-09-09T07:36:19.129Z,23.90
2022-09-09T07:38:46.535Z,24.20
2022-09-09T07:41:18.111Z,25.00
2022-09-09T07:43:45.330Z,25.90
2022-09-09T07:46:13.008Z,26.50
2022-09-09T07:48:39.995Z,26.80
2022-09-09T07:51:07.252Z,26.80
2022-09-09T07:53:33.834Z,26.60
2022-09-09T07:56:04.393Z,25.90
2022-09-09T07:58:33.969Z,25.10
2022-09-09T08:01:12.752Z,24.20
2022-09-09T08:03:39.305Z,23.30
2022-09-09T08:06:07.176Z,22.50
2022-09-09T08:08:34.028Z,21.70
2022-09-09T08:11:10.501Z,21.30
2022-09-09T08:13:37.449Z,20.80
2022-09-09T08:16:05.444Z,20.30
2022-09-09T08:18:31.991Z,20.10
2022-09-09T08:20:58.536Z,20.70
2022-09-09T08:23:25.089Z,20.70
2022-09-09T08:25:51.639Z,20.90
2022-09-09T08:28:18.184Z,20.90
2022-09-09T08:30:44.721Z,20.50
2022-09-09T08:33:11.305Z,20.20
2022-09-09T08:35:38.646Z,20.00
2022-09-09T08:38:08.918Z,19.90
2022-09-09T08:40:38.312Z,20.10
2022-09-09T08:43:05.021Z,20.50
2022-09-09T08:45:36.526Z,20.90
2022-09-09T08:48:13.046Z,21.00
2022-09-09T08:50:39.690Z,20.70
2022-09-09T08:53:09.044Z,20.90
2022-09-09T08:55:55.701Z,20.90
2022-09-09T08:58:32.477Z,20.60
2022-09-09T09:01:11.676Z,20.30
2022-09-09T09:03:38.281Z,20.10
2022-09-09T09:06:04.761Z,20.10
2022-09-09T09:08:38.927Z,20.20
2022-09-09T09:11:06.912Z,20.10
2022-09-09T09:13:43.146Z,20.40
2022-09-09T09:16:15.678Z,20.80
2022-09-09T09:18:43.208Z,21.20
2022-09-09T09:21:13.583Z,21.50
2022-09-09T09:23:59.108Z,21.70
2022-09-09T09:26:27.396Z,21.80
2022-09-09T09:28:54.971Z,21.90
2022-09-09T09:31:21.703Z,22.00
2022-09-09T09:33:51.797Z,22.20
2022-09-09T09:36:18.421Z,22.50
2022-09-09T09:41:44.722Z,21.90
2022-09-09T09:44:30.224Z,21.90
2022-09-09T09:47:13.414Z,21.70
2022-09-09T09:49:40.595Z,21.60
2022-09-09T09:52:07.298Z,21.70
2022-09-09T09:54:34.978Z,22.20
2022-09-09T09:57:14.162Z,22.80
2022-09-09T09:59:41.124Z,23.30
2022-09-09T10:02:13.838Z,23.20
2022-09-09T10:04:40.429Z,23.30
2022-09-09T10:07:13.821Z,23.50
2022-09-09T10:09:41.651Z,23.20
2022-09-09T10:12:12.072Z,22.80
2022-09-09T10:14:51.202Z,22.70
2022-09-09T10:17:28.157Z,22.70
2022-09-09T10:19:59.908Z,22.70
2022-09-09T10:22:29.478Z,22.80
2022-09-09T10:25:09.247Z,23.10
2022-09-09T10:27:58.963Z,23.50
2022-09-09T10:30:37.473Z,23.60
2022-09-09T10:33:04.011Z,23.90
2022-09-09T10:35:46.695Z,23.50
2022-09-09T10:38:25.259Z,23.30
2022-09-09T10:40:52.382Z,22.80
2022-09-09T10:43:21.914Z,22.50
2022-09-09T10:45:57.622Z,22.20
2022-09-09T10:48:28.154Z,22.00
2022-09-09T10:51:03.978Z,22.00
2022-09-09T10:54:00.733Z,21.80
2022-09-09T10:56:27.449Z,21.60
2022-09-09T10:59:01.436Z,21.30
2022-09-09T11:01:32.650Z,21.20
2022-09-09T11:04:01.761Z,21.10
2022-09-09T11:06:30.386Z,21.10
2022-09-09T11:08:57.844Z,21.60
2022-09-09T11:11:30.222Z,22.10
2022-09-09T11:14:10.071Z,22.20
2022-09-09T11:16:42.992Z,22.60
2022-09-09T11:19:18.191Z,22.80
2022-09-09T11:21:46.760Z,23.00
2022-09-09T11:24:18.287Z,22.90
2022-09-09T11:26:49.119Z,22.70
2022-09-09T11:29:24.052Z,22.70
2022-09-09T11:32:10.784Z,23.00
2022-09-09T11:34:43.416Z,22.70
2022-09-09T11:37:29.081Z,22.30
2022-09-09T11:40:01.631Z,22.30
2022-09-09T11:42:28.292Z,22.10
2022-09-09T11:44:55.933Z,22.20
2022-09-09T11:47:23.851Z,22.50
2022-09-09T11:49:50.389Z,22.50
2022-09-09T11:52:36.469Z,22.30
2022-09-09T11:55:10.038Z,22.00
2022-09-09T11:57:36.853Z,21.90
2022-09-09T12:00:04.177Z,21.90
2022-09-09T12:02:32.169Z,22.00
2022-09-09T12:05:01.589Z,22.40
2022-09-09T12:07:28.734Z,22.60
2022-09-09T12:10:14.667Z,22.70
2022-09-09T12:12:44.008Z,22.80
2022-09-09T12:15:10.709Z,22.80
2022-09-09T12:17:45.772Z,22.70
2022-09-09T12:20:14.351Z,22.10
2022-09-09T12:22:50.990Z,21.60
2022-09-09T12:25:47.516Z,21.30
2022-09-09T12:28:20.314Z,21.00
2022-09-09T12:30:57.772Z,20.90
2022-09-09T12:33:24.800Z,20.80
2022-09-09T12:35:55.332Z,20.70
2022-09-09T12:38:23.996Z,20.70
2022-09-09T12:40:57.223Z,20.70
2022-09-09T12:43:24.308Z,20.70
2022-09-09T12:45:51.722Z,20.70
2022-09-09T12:48:18.896Z,20.70
2022-09-09T12:50:46.129Z,20.60
2022-09-09T12:53:19.184Z,20.60
2022-09-09T12:55:53.289Z,20.60
2022-09-09T12:58:19.897Z,20.40
2022-09-09T13:00:53.300Z,20.30
2022-09-09T13:03:21.682Z,20.30
2022-09-09T13:05:48.435Z,20.40
2022-09-09T13:08:15.053Z,20.60
2022-09-09T13:10:53.204Z,20.90
2022-09-09T13:13:28.162Z,21.20
2022-09-09T13:15:55.167Z,21.50
2022-09-09T13:18:22.784Z,21.80
2022-09-09T13:20:49.508Z,22.00
2022-09-09T13:23:16.299Z,22.10
2022-09-09T13:25:44.728Z,22.10
2022-09-09T13:28:25.485Z,22.40
2022-09-09T13:31:00.072Z,22.90
2022-09-09T13:33:33.103Z,23.30
2022-09-09T13:36:00.743Z,23.60
2022-09-09T13:38:28.464Z,23.80
2022-09-09T13:40:55.772Z,23.70
2022-09-09T13:43:22.972Z,23.50
2022-09-09T13:45:59.401Z,23.50
2022-09-09T13:48:26.687Z,23.50
2022-09-09T13:50:57.046Z,23.30
2022-09-09T13:53:23.624Z,23.20
2022-09-09T13:55:53.304Z,23.00
2022-09-09T13:58:20.355Z,22.80
2022-09-09T14:00:47.680Z,22.70
2022-09-09T14:03:14.734Z,22.50
2022-09-09T14:05:41.266Z,22.70
2022-09-09T14:08:08.130Z,23.00
2022-09-09T14:10:37.905Z,23.30
2022-09-09T14:13:04.606Z,23.60
2022-09-09T14:15:31.132Z,23.70
2022-09-09T14:17:59.879Z,23.70
2022-09-09T14:20:26.481Z,23.50
2022-09-09T14:22:54.384Z,23.00
2022-09-09T14:25:20.926Z,22.70
2022-09-09T14:27:47.472Z,22.30
2022-09-09T14:30:14.012Z,22.20
2022-09-09T14:32:40.561Z,22.20
2022-09-09T14:35:07.968Z,22.40
2022-09-09T14:37:34.532Z,22.50
2022-09-09T14:40:01.141Z,22.90
2022-09-09T14:42:27.882Z,23.30
2022-09-09T14:44:54.423Z,23.70
2022-09-09T14:47:21.013Z,24.00
2022-09-09T14:49:50.743Z,24.20
2022-09-09T14:52:17.494Z,24.20
2022-09-09T14:54:44.037Z,23.90
2022-09-09T14:57:10.592Z,23.70
2022-09-09T14:59:37.218Z,23.70
2022-09-09T15:02:05.166Z,23.80
2022-09-09T15:04:31.957Z,23.40
2022-09-09T15:06:59.246Z,23.40
2022-09-09T15:09:25.789Z,23.20
2022-09-09T15:11:52.392Z,23.00
2022-09-09T15:14:22.274Z,22.90
2022-09-09T15:16:51.822Z,22.90
2022-09-09T15:19:18.348Z,22.90
2022-09-09T15:21:45.284Z,22.80
2022-09-09T15:24:11.857Z,22.70
2022-09-09T15:26:39.343Z,22.50
2022-09-09T15:29:06.116Z,22.40
2022-09-09T15:31:32.906Z,22.30
2022-09-09T15:34:03.107Z,22.10
2022-09-09T15:36:30.611Z,22.10
2022-09-09T15:38:57.221Z,21.90
2022-09-09T15:41:23.912Z,21.90
2022-09-09T15:43:51.362Z,21.90
2022-09-09T15:46:17.907Z,21.80
2022-09-09T15:48:45.168Z,21.80
2022-09-09T15:51:31.028Z,21.80
2022-09-09T15:53:58.793Z,21.80
2022-09-09T15:56:28.911Z,21.70
2022-09-09T15:58:58.547Z,21.70
2022-09-09T16:01:25.380Z,21.70
2022-09-09T16:03:51.984Z,21.50
2022-09-09T16:06:19.162Z,21.40
2022-09-09T16:08:46.035Z,21.40
2022-09-09T16:11:15.380Z,21.30
2022-09-09T16:13:42.471Z,21.30
2022-09-09T16:16:10.135Z,21.20
2022-09-09T16:18:36.637Z,21.10
2022-09-09T16:21:03.970Z,21.10
2022-09-09T16:23:30.590Z,21.10
2022-09-09T16:25:57.126Z,21.10
2022-09-09T16:28:23.701Z,21.00
2022-09-09T16:30:50.538Z,20.90
2022-09-09T16:33:17.484Z,20.90
2022-09-09T16:35:44.164Z,20.90
2022-09-09T16:38:10.981Z,20.80
2022-09-09T16:40:37.932Z,20.70
2022-09-09T16:43:04.805Z,20.60
2022-09-09T16:45:31.581Z,20.50
2022-09-09T16:47:58.270Z,20.40
2022-09-09T16:50:24.917Z,20.40
2022-09-09T16:52:52.303Z,20.30
2022-09-09T16:55:21.366Z,20.30
2022-09-09T16:57:50.483Z,20.20
2022-09-09T17:00:17.607Z,20.10
2022-09-09T17:02:44.437Z,20.00
2022-09-09T17:05:11.020Z,20.00
2022-09-09T17:07:37.588Z,19.90
2022-09-09T17:10:04.296Z,19.90
2022-09-09T17:12:30.844Z,19.80
2022-09-09T17:14:57.829Z,19.80
2022-09-09T17:17:31.779Z,19.70
2022-09-09T17:19:58.765Z,19.70
2022-09-09T17:22:27.513Z,19.80
2022-09-09T17:24:54.082Z,19.80
2022-09-09T17:27:20.629Z,19.80
2022-09-09T17:29:47.890Z,19.70
2022-09-09T17:32:14.482Z,19.70
2022-09-09T17:34:41.134Z,19.60
2022-09-09T17:37:07.747Z,19.50
2022-09-09T17:39:34.368Z,19.50
2022-09-09T17:42:01.057Z,19.40
2022-09-09T17:44:27.604Z,19.40
2022-09-09T17:46:55.573Z,19.40
2022-09-09T17:49:22.156Z,19.20
2022-09-09T17:51:48.748Z,19.10
2022-09-09T17:54:17.250Z,19.00
2022-09-09T17:56:44.945Z,18.90
2022-09-09T17:59:12.217Z,18.80
2022-09-09T18:01:39.677Z,18.70
2022-09-09T18:04:06.690Z,18.70
2022-09-09T18:06:36.063Z,18.70
2022-09-09T18:09:04.157Z,18.70
2022-09-09T18:11:34.890Z,18.70
2022-09-09T18:14:01.769Z,18.60
2022-09-09T18:16:29.437Z,18.60
2022-09-09T18:18:58.267Z,18.50
2022-09-09T18:21:26.267Z,18.40
2022-09-09T18:23:53.241Z,18.40
2022-09-09T18:26:20.735Z,18.40
2022-09-09T18:28:48.723Z,18.40
2022-09-09T18:31:16.165Z,18.30
2022-09-09T18:33:44.398Z,18.20
2022-09-09T18:36:11.878Z,18.20
2022-09-09T18:38:38.625Z,18.20
2022-09-09T18:41:24.029Z,18.20
2022-09-09T18:43:52.629Z,18.10
2022-09-09T18:46:19.238Z,18.00
2022-09-09T18:48:46.075Z,17.90
2022-09-09T18:51:13.093Z,17.90
2022-09-09T18:53:39.643Z,17.80
2022-09-09T18:56:07.109Z,17.80
2022-09-09T18:58:33.844Z,17.70
2022-09-09T19:01:00.809Z,17.60
2022-09-09T19:03:27.817Z,17.60
2022-09-09T19:05:54.367Z,17.50
2022-09-09T19:08:21.143Z,17.40
2022-09-09T19:10:47.806Z,17.40
2022-09-09T19:13:14.533Z,17.30
2022-09-09T19:15:41.376Z,17.30
2022-09-09T19:18:07.989Z,17.30
2022-09-09T19:20:34.553Z,17.30
2022-09-09T19:23:02.073Z,17.20
2022-09-09T19:25:28.885Z,17.20
2022-09-09T19:27:55.440Z,17.20
2022-09-09T19:30:21.972Z,17.20
2022-09-09T19:32:53.507Z,17.20
2022-09-09T19:35:20.428Z,17.10
2022-09-09T19:37:46.981Z,17.10
2022-09-09T19:40:13.715Z,17.00
2022-09-09T19:42:40.816Z,17.00
2022-09-09T19:45:09.389Z,17.00
2022-09-09T19:47:36.034Z,16.90
2022-09-09T19:50:05.588Z,16.90
2022-09-09T19:52:32.132Z,16.90
2022-09-09T19:54:59.349Z,16.80
2022-09-09T19:57:30.193Z,16.80
2022-09-09T19:59:57.402Z,16.80
2022-09-09T20:02:24.941Z,16.80
2022-09-09T20:04:51.871Z,16.80
2022-09-09T20:07:19.149Z,16.80
2022-09-09T20:09:45.698Z,16.90
2022-09-09T20:12:12.244Z,16.90
2022-09-09T20:14:39.912Z,16.90
2022-09-09T20:17:06.996Z,16.90
2022-09-09T20:19:34.121Z,16.90
2022-09-09T20:22:00.736Z,16.80
2022-09-09T20:24:27.265Z,16.80
2022-09-09T20:26:53.812Z,16.70
2022-09-09T20:29:20.341Z,16.70
2022-09-09T20:31:47.062Z,16.60
2022-09-09T20:34:14.387Z,16.60
2022-09-09T20:36:41.313Z,16.40
2022-09-09T20:39:08.126Z,16.30
2022-09-09T20:41:35.128Z,16.30
2022-09-09T20:44:02.543Z,16.20
2022-09-09T20:46:36.471Z,16.20
2022-09-09T20:49:03.609Z,16.20
2022-09-09T20:51:31.921Z,16.20
2022-09-09T20:53:59.428Z,16.20
2022-09-09T20:56:26.548Z,16.20
2022-09-09T20:58:53.401Z,16.20
2022-09-09T21:01:20.473Z,16.10
2022-09-09T21:03:47.129Z,16.10
2022-09-09T21:06:14.571Z,16.20
2022-09-09T21:08:41.318Z,16.20
2022-09-09T21:11:07.888Z,16.20
2022-09-09T21:13:36.203Z,16.20
2022-09-09T21:16:03.046Z,16.30
2022-09-09T21:18:29.612Z,16.30
2022-09-09T21:20:56.241Z,16.30
2022-09-09T21:23:22.923Z,16.30
2022-09-09T21:25:49.577Z,16.30
2022-09-09T21:28:16.145Z,16.30
2022-09-09T21:30:44.250Z,16.20
2022-09-09T21:33:10.979Z,16.20
2022-09-09T21:35:39.376Z,16.20
2022-09-09T21:38:06.517Z,16.20
2022-09-09T21:40:36.167Z,16.10
2022-09-09T21:43:04.502Z,16.20
2022-09-09T21:45:31.224Z,16.10
2022-09-09T21:47:57.780Z,16.10
2022-09-09T21:50:28.005Z,16.10
2022-09-09T21:52:55.437Z,16.10
2022-09-09T21:55:21.967Z,16.10
2022-09-09T21:57:50.331Z,16.10
2022-09-09T22:00:18.021Z,16.10
2022-09-09T22:02:44.692Z,16.10
2022-09-09T22:05:11.403Z,16.10
2022-09-09T22:07:39.147Z,16.10
2022-09-09T22:10:06.924Z,16.10
2022-09-09T22:12:34.716Z,16.10
2022-09-09T22:15:01.244Z,16.00
2022-09-09T22:17:27.804Z,16.10
2022-09-09T22:19:54.331Z,16.10
2022-09-09T22:22:20.933Z,16.10
2022-09-09T22:24:47.462Z,16.10
2022-09-09T22:27:15.651Z,16.00
2022-09-09T22:29:42.324Z,16.10
2022-09-09T22:32:09.945Z,16.00
2022-09-09T22:34:36.972Z,16.00
2022-09-09T22:37:03.810Z,16.00
2022-09-09T22:39:30.361Z,15.90
2022-09-09T22:41:56.912Z,15.90
2022-09-09T22:44:24.097Z,15.90
2022-09-09T22:46:50.659Z,15.90
2022-09-09T22:49:17.194Z,15.90
2022-09-09T22:51:43.954Z,15.90
2022-09-09T22:54:10.483Z,15.90
2022-09-09T22:56:37.028Z,15.80
2022-09-09T22:59:03.673Z,15.90
2022-09-09T23:01:30.532Z,15.90
2022-09-09T23:04:02.513Z,15.80
2022-09-09T23:06:29.161Z,15.80
2022-09-09T23:08:56.893Z,15.80
2022-09-09T23:11:23.997Z,15.80
2022-09-09T23:13:52.430Z,15.80
2022-09-09T23:16:20.142Z,15.80
2022-09-09T23:18:46.899Z,15.80
2022-09-09T23:21:14.602Z,15.80
2022-09-09T23:23:42.437Z,15.70
2022-09-09T23:26:09.520Z,15.70
2022-09-09T23:28:36.765Z,15.70
2022-09-09T23:31:06.736Z,15.70
2022-09-09T23:33:33.643Z,15.60
2022-09-09T23:36:00.566Z,15.60
2022-09-09T23:38:28.338Z,15.60
2022-09-09T23:40:55.267Z,15.50
2022-09-09T23:43:24.145Z,15.60
2022-09-09T23:45:50.880Z,15.50
2022-09-09T23:48:17.672Z,15.50
2022-09-09T23:50:44.215Z,15.40
2022-09-09T23:53:12.193Z,15.40
2022-09-09T23:55:38.889Z,15.40
2022-09-09T23:58:05.435Z,15.40
